DLH99E EDDF-LPPD
Flight info
| Callsign | DLH99E |
|---|---|
| Flight time | N/A |
| Altitude | 34000 |
| Route | ULKIG4L/18 ULKIG Y180 DIK UN857 TOLVU DCT RAPOR DCT KIHVI/N0449F350 UN872 PON UT300 ELCOB UT176 TERPO UN461 AKEMO DCT RIVAK/M077F350 UN460 SIVIR DCT GONAN DCT 42N019W/M077F360 DCT BAVAS |
| Aircraft | A321/M-SDE3FGHIRWY/LB1 |
Departure
| Time | N/A |
|---|---|
| Airport | Frankfurt Main Airport (EDDF) |
Arrival
| Time | 2026-04-27 20:58 |
|---|---|
| Airport | João Paulo II Airport (LPPD) |
| Time | Latitude | Longitude | Altitude | Speed | Heading |
|---|---|---|---|---|---|
| 2026-04-27 18:01 | 47.51003 | -1.66550 | 36173 ft | 418 kts | 230° |
| 2026-04-27 18:01 | 47.47102 | -1.72953 | 36172 ft | 419 kts | 229° |
| 2026-04-27 18:02 | 47.43197 | -1.79345 | 36165 ft | 419 kts | 229° |
| 2026-04-27 18:02 | 47.39947 | -1.84657 | 36166 ft | 420 kts | 229° |
| 2026-04-27 18:03 | 47.36151 | -1.91187 | 36148 ft | 418 kts | 237° |
| 2026-04-27 18:03 | 47.33735 | -1.98908 | 36159 ft | 416 kts | 254° |
| 2026-04-27 18:04 | 47.32175 | -2.07119 | 36161 ft | 416 kts | 254° |
| 2026-04-27 18:04 | 47.30605 | -2.15330 | 36163 ft | 417 kts | 253° |
| 2026-04-27 18:05 | 47.29019 | -2.23553 | 36159 ft | 417 kts | 253° |
| 2026-04-27 18:05 | 47.27422 | -2.31768 | 36160 ft | 418 kts | 253° |
| 2026-04-27 18:06 | 47.25812 | -2.39984 | 36162 ft | 418 kts | 253° |
| 2026-04-27 18:06 | 47.24199 | -2.48204 | 36169 ft | 418 kts | 253° |
| 2026-04-27 18:07 | 47.22589 | -2.56428 | 36165 ft | 419 kts | 253° |
| 2026-04-27 18:07 | 47.20970 | -2.64663 | 36169 ft | 419 kts | 253° |
| 2026-04-27 18:08 | 47.19344 | -2.72903 | 36171 ft | 420 kts | 253° |
| 2026-04-27 18:08 | 47.17708 | -2.81152 | 36173 ft | 420 kts | 253° |
| 2026-04-27 18:09 | 47.16065 | -2.89329 | 36179 ft | 420 kts | 253° |
| 2026-04-27 18:09 | 47.14400 | -2.97577 | 36171 ft | 421 kts | 253° |
| 2026-04-27 18:10 | 47.12739 | -3.05837 | 36171 ft | 421 kts | 253° |
| 2026-04-27 18:10 | 47.11077 | -3.14091 | 36177 ft | 421 kts | 253° |
| 2026-04-27 18:11 | 47.09396 | -3.22318 | 36182 ft | 421 kts | 253° |
| 2026-04-27 18:11 | 47.07713 | -3.30553 | 36185 ft | 421 kts | 253° |
| 2026-04-27 18:12 | 47.06029 | -3.38785 | 36180 ft | 422 kts | 253° |
| 2026-04-27 18:12 | 47.04333 | -3.47025 | 36182 ft | 422 kts | 252° |
| 2026-04-27 18:13 | 47.02623 | -3.55267 | 36184 ft | 423 kts | 252° |
| 2026-04-27 18:13 | 47.00909 | -3.63511 | 36184 ft | 423 kts | 252° |
| 2026-04-27 18:14 | 46.99190 | -3.71759 | 36183 ft | 423 kts | 252° |
| 2026-04-27 18:14 | 46.97465 | -3.80006 | 36184 ft | 424 kts | 252° |
| 2026-04-27 18:15 | 46.95738 | -3.88216 | 36184 ft | 424 kts | 252° |
| 2026-04-27 18:15 | 46.93996 | -3.96484 | 36185 ft | 425 kts | 252° |
| 2026-04-27 18:16 | 46.92244 | -4.04757 | 36186 ft | 425 kts | 252° |
| 2026-04-27 18:16 | 46.90478 | -4.13010 | 36194 ft | 426 kts | 252° |
| 2026-04-27 18:17 | 46.88711 | -4.21275 | 36177 ft | 426 kts | 252° |
| 2026-04-27 18:17 | 46.86945 | -4.29537 | 36185 ft | 426 kts | 252° |
| 2026-04-27 18:18 | 46.85168 | -4.37788 | 36190 ft | 426 kts | 252° |
| 2026-04-27 18:18 | 46.83378 | -4.46041 | 36192 ft | 426 kts | 252° |
| 2026-04-27 18:19 | 46.81598 | -4.54244 | 36192 ft | 426 kts | 252° |
| 2026-04-27 18:19 | 46.79807 | -4.62484 | 36194 ft | 426 kts | 252° |
| 2026-04-27 18:20 | 46.78007 | -4.70713 | 36192 ft | 426 kts | 252° |
| 2026-04-27 18:20 | 46.76198 | -4.78931 | 36192 ft | 426 kts | 251° |
| 2026-04-27 18:21 | 46.74380 | -4.87153 | 36195 ft | 426 kts | 251° |
| 2026-04-27 18:21 | 46.72561 | -4.95375 | 36196 ft | 426 kts | 251° |
| 2026-04-27 18:22 | 46.70731 | -5.03603 | 36195 ft | 427 kts | 251° |
| 2026-04-27 18:22 | 46.68890 | -5.11836 | 36191 ft | 427 kts | 251° |
| 2026-04-27 18:23 | 46.67042 | -5.20067 | 36194 ft | 428 kts | 251° |
| 2026-04-27 18:23 | 46.65192 | -5.28303 | 36202 ft | 428 kts | 251° |
| 2026-04-27 18:24 | 46.63334 | -5.36547 | 36195 ft | 429 kts | 251° |
| 2026-04-27 18:24 | 46.61469 | -5.44805 | 36190 ft | 430 kts | 251° |
| 2026-04-27 18:25 | 46.59586 | -5.53065 | 36193 ft | 430 kts | 251° |
| 2026-04-27 18:25 | 46.57695 | -5.61329 | 36192 ft | 431 kts | 251° |
| 2026-04-27 18:26 | 46.55800 | -5.69587 | 36200 ft | 431 kts | 251° |
| 2026-04-27 18:26 | 46.53898 | -5.77862 | 36195 ft | 432 kts | 251° |
| 2026-04-27 18:27 | 46.51995 | -5.86103 | 36198 ft | 433 kts | 251° |
| 2026-04-27 18:27 | 46.50073 | -5.94393 | 36200 ft | 434 kts | 251° |
| 2026-04-27 18:28 | 46.48139 | -6.02688 | 36200 ft | 434 kts | 251° |
| 2026-04-27 18:28 | 46.46198 | -6.10982 | 36199 ft | 435 kts | 251° |
| 2026-04-27 18:29 | 46.44251 | -6.19299 | 36197 ft | 436 kts | 251° |
| 2026-04-27 18:29 | 46.42290 | -6.27620 | 36198 ft | 436 kts | 251° |
| 2026-04-27 18:30 | 46.40318 | -6.35950 | 36202 ft | 437 kts | 251° |
| 2026-04-27 18:30 | 46.38341 | -6.44265 | 36208 ft | 437 kts | 251° |
| 2026-04-27 18:31 | 46.36360 | -6.52593 | 36206 ft | 437 kts | 251° |
| 2026-04-27 18:31 | 46.34379 | -6.60907 | 36208 ft | 437 kts | 251° |
| 2026-04-27 18:32 | 46.32386 | -6.69220 | 36205 ft | 437 kts | 250° |
| 2026-04-27 18:32 | 46.30380 | -6.77529 | 36212 ft | 437 kts | 250° |
| 2026-04-27 18:33 | 46.28359 | -6.85832 | 36208 ft | 438 kts | 250° |
| 2026-04-27 18:33 | 46.26342 | -6.94149 | 36203 ft | 439 kts | 250° |
| 2026-04-27 18:34 | 46.24327 | -7.02428 | 36203 ft | 440 kts | 250° |
| 2026-04-27 18:34 | 46.22294 | -7.10769 | 36205 ft | 440 kts | 250° |
| 2026-04-27 18:35 | 46.20252 | -7.19117 | 36207 ft | 441 kts | 250° |
| 2026-04-27 18:35 | 46.18199 | -7.27460 | 36212 ft | 441 kts | 250° |
| 2026-04-27 18:36 | 46.16134 | -7.35791 | 36212 ft | 441 kts | 250° |
| 2026-04-27 18:36 | 46.14059 | -7.44122 | 36214 ft | 441 kts | 250° |
| 2026-04-27 18:37 | 46.11989 | -7.52441 | 36204 ft | 441 kts | 250° |
| 2026-04-27 18:37 | 46.09925 | -7.60701 | 36215 ft | 441 kts | 250° |
| 2026-04-27 18:38 | 46.07843 | -7.69006 | 36217 ft | 440 kts | 250° |
| 2026-04-27 18:38 | 46.05756 | -7.77300 | 36214 ft | 441 kts | 250° |
| 2026-04-27 18:39 | 46.03662 | -7.85582 | 36214 ft | 440 kts | 250° |
| 2026-04-27 18:39 | 46.01561 | -7.93868 | 36216 ft | 440 kts | 250° |
| 2026-04-27 18:40 | 46.00079 | -8.02378 | 36199 ft | 440 kts | 265° |
| 2026-04-27 18:40 | 46.00037 | -8.11194 | 36201 ft | 441 kts | 270° |
| 2026-04-27 18:41 | 46.00057 | -8.19962 | 36198 ft | 442 kts | 270° |
| 2026-04-27 18:41 | 46.00060 | -8.28809 | 36209 ft | 442 kts | 269° |
| 2026-04-27 18:42 | 46.00056 | -8.36223 | 36207 ft | 442 kts | 269° |
| 2026-04-27 18:42 | 46.00056 | -8.46515 | 36212 ft | 443 kts | 269° |
| 2026-04-27 18:43 | 46.00049 | -8.55370 | 36212 ft | 443 kts | 269° |
| 2026-04-27 18:43 | 46.00032 | -8.64233 | 36216 ft | 443 kts | 269° |
| 2026-04-27 18:44 | 45.99985 | -8.73095 | 36222 ft | 443 kts | 266° |
| 2026-04-27 18:44 | 45.98877 | -8.81803 | 36209 ft | 444 kts | 257° |
| 2026-04-27 18:45 | 45.97447 | -8.90440 | 36205 ft | 445 kts | 257° |
| 2026-04-27 18:45 | 45.96013 | -8.99107 | 36215 ft | 445 kts | 257° |
| 2026-04-27 18:46 | 45.94575 | -9.07727 | 36217 ft | 446 kts | 256° |
| 2026-04-27 18:46 | 45.93106 | -9.16401 | 36211 ft | 447 kts | 258° |
| 2026-04-27 18:47 | 45.91636 | -9.25090 | 36211 ft | 448 kts | 257° |
| 2026-04-27 18:47 | 45.90415 | -9.32315 | 36210 ft | 449 kts | 257° |
| 2026-04-27 18:48 | 45.88934 | -9.41016 | 36219 ft | 449 kts | 257° |
| 2026-04-27 18:48 | 45.87442 | -9.49730 | 36219 ft | 450 kts | 258° |
| 2026-04-27 18:49 | 45.85942 | -9.58452 | 36210 ft | 451 kts | 257° |
| 2026-04-27 18:49 | 45.84428 | -9.67198 | 36212 ft | 452 kts | 258° |
| 2026-04-27 18:50 | 45.82895 | -9.75958 | 36215 ft | 453 kts | 257° |
| 2026-04-27 18:50 | 45.81360 | -9.84725 | 36219 ft | 453 kts | 258° |
| 2026-04-27 18:51 | 45.79827 | -9.93491 | 36214 ft | 454 kts | 259° |
| 2026-04-27 18:51 | 45.78278 | -10.02273 | 36220 ft | 455 kts | 257° |
| 2026-04-27 18:52 | 45.76724 | -10.11067 | 36226 ft | 455 kts | 259° |
| 2026-04-27 18:53 | 45.74361 | -10.24258 | 36225 ft | 456 kts | 258° |
| 2026-04-27 18:53 | 45.72784 | -10.33053 | 36220 ft | 457 kts | 258° |
| 2026-04-27 18:54 | 45.71196 | -10.41856 | 36226 ft | 457 kts | 258° |
| 2026-04-27 18:54 | 45.69613 | -10.50613 | 36229 ft | 458 kts | 257° |
| 2026-04-27 18:55 | 45.68005 | -10.59423 | 36237 ft | 458 kts | 258° |
| 2026-04-27 18:55 | 45.66390 | -10.68229 | 36233 ft | 458 kts | 258° |
| 2026-04-27 18:56 | 45.64780 | -10.77035 | 36240 ft | 457 kts | 256° |
| 2026-04-27 18:56 | 45.63157 | -10.85822 | 36245 ft | 457 kts | 257° |
| 2026-04-27 18:57 | 45.61529 | -10.94604 | 36242 ft | 457 kts | 257° |
| 2026-04-27 18:57 | 45.59901 | -11.03377 | 36234 ft | 457 kts | 257° |
| 2026-04-27 18:58 | 45.58253 | -11.12144 | 36235 ft | 458 kts | 258° |
| 2026-04-27 18:58 | 45.56599 | -11.20923 | 36239 ft | 458 kts | 256° |
| 2026-04-27 18:59 | 45.54937 | -11.29696 | 36247 ft | 458 kts | 256° |
| 2026-04-27 18:59 | 45.53269 | -11.38477 | 36241 ft | 459 kts | 256° |
| 2026-04-27 19:00 | 45.51598 | -11.47207 | 36236 ft | 459 kts | 257° |
| 2026-04-27 19:00 | 45.49905 | -11.56054 | 36248 ft | 460 kts | 257° |
| 2026-04-27 19:01 | 45.48228 | -11.64792 | 36257 ft | 460 kts | 256° |
| 2026-04-27 19:01 | 45.46524 | -11.73574 | 36254 ft | 460 kts | 257° |
| 2026-04-27 19:02 | 45.44812 | -11.82376 | 36247 ft | 461 kts | 257° |
| 2026-04-27 19:02 | 45.43092 | -11.91176 | 36246 ft | 462 kts | 256° |
| 2026-04-27 19:03 | 45.41361 | -11.99979 | 36247 ft | 462 kts | 257° |
| 2026-04-27 19:03 | 45.39626 | -12.08787 | 36258 ft | 462 kts | 257° |
| 2026-04-27 19:04 | 45.37885 | -12.17595 | 36263 ft | 462 kts | 256° |
| 2026-04-27 19:04 | 45.36138 | -12.26392 | 36262 ft | 462 kts | 256° |
| 2026-04-27 19:05 | 45.34378 | -12.35185 | 36263 ft | 462 kts | 256° |
| 2026-04-27 19:05 | 45.32611 | -12.43984 | 36260 ft | 462 kts | 256° |
| 2026-04-27 19:06 | 45.30850 | -12.52715 | 36266 ft | 463 kts | 256° |
| 2026-04-27 19:06 | 45.29077 | -12.61504 | 36270 ft | 463 kts | 256° |
| 2026-04-27 19:07 | 45.27283 | -12.70290 | 36264 ft | 463 kts | 256° |
| 2026-04-27 19:07 | 45.25488 | -12.79064 | 36275 ft | 463 kts | 256° |
| 2026-04-27 19:08 | 45.23697 | -12.87843 | 36275 ft | 463 kts | 256° |
| 2026-04-27 19:08 | 45.21901 | -12.96609 | 36280 ft | 463 kts | 255° |
| 2026-04-27 19:09 | 45.20082 | -13.05360 | 36280 ft | 463 kts | 256° |
| 2026-04-27 19:09 | 45.18265 | -13.14108 | 36281 ft | 463 kts | 255° |
| 2026-04-27 19:10 | 45.16442 | -13.22870 | 36278 ft | 463 kts | 255° |
| 2026-04-27 19:10 | 45.14618 | -13.31562 | 36277 ft | 463 kts | 255° |
| 2026-04-27 19:11 | 45.12773 | -13.40289 | 36287 ft | 463 kts | 255° |
| 2026-04-27 19:11 | 45.10926 | -13.49028 | 36289 ft | 463 kts | 255° |
| 2026-04-27 19:12 | 45.09080 | -13.57751 | 36280 ft | 463 kts | 255° |
| 2026-04-27 19:12 | 45.07223 | -13.66467 | 36291 ft | 463 kts | 255° |
| 2026-04-27 19:13 | 45.05351 | -13.75187 | 36290 ft | 463 kts | 255° |
| 2026-04-27 19:13 | 45.03478 | -13.83904 | 36293 ft | 462 kts | 255° |
| 2026-04-27 19:14 | 45.01603 | -13.92604 | 36287 ft | 462 kts | 255° |
| 2026-04-27 19:14 | 44.99215 | -14.01032 | 36289 ft | 465 kts | 240° |
| 2026-04-27 19:15 | 44.95371 | -14.08405 | 36292 ft | 466 kts | 233° |
| 2026-04-27 19:15 | 44.91400 | -14.15582 | 36292 ft | 467 kts | 233° |
| 2026-04-27 19:16 | 44.88194 | -14.21398 | 36304 ft | 466 kts | 234° |
| 2026-04-27 19:16 | 44.84210 | -14.28613 | 36298 ft | 466 kts | 233° |
| 2026-04-27 19:17 | 44.80210 | -14.35809 | 36298 ft | 466 kts | 233° |
| 2026-04-27 19:17 | 44.76197 | -14.42979 | 36296 ft | 466 kts | 233° |
| 2026-04-27 19:18 | 44.72214 | -14.50101 | 36298 ft | 465 kts | 233° |
| 2026-04-27 19:18 | 44.68216 | -14.57261 | 36293 ft | 465 kts | 233° |
| 2026-04-27 19:19 | 44.64212 | -14.64399 | 36296 ft | 465 kts | 233° |
| 2026-04-27 19:19 | 44.60195 | -14.71534 | 36299 ft | 465 kts | 233° |
| 2026-04-27 19:20 | 44.56178 | -14.78630 | 36295 ft | 464 kts | 233° |
| 2026-04-27 19:20 | 44.52199 | -14.85677 | 36282 ft | 464 kts | 233° |
| 2026-04-27 19:21 | 44.48194 | -14.92765 | 36295 ft | 464 kts | 233° |
| 2026-04-27 19:21 | 44.44180 | -14.99837 | 36296 ft | 464 kts | 233° |
| 2026-04-27 19:22 | 44.40154 | -15.06885 | 36308 ft | 464 kts | 233° |
| 2026-04-27 19:22 | 44.36122 | -15.13928 | 36286 ft | 463 kts | 233° |
| 2026-04-27 19:23 | 44.32092 | -15.20963 | 36302 ft | 463 kts | 233° |
| 2026-04-27 19:23 | 44.28072 | -15.27978 | 36302 ft | 462 kts | 233° |
| 2026-04-27 19:24 | 44.24047 | -15.34976 | 36283 ft | 462 kts | 233° |
| 2026-04-27 19:24 | 44.20013 | -15.41958 | 36289 ft | 462 kts | 233° |
| 2026-04-27 19:25 | 44.15987 | -15.48930 | 36287 ft | 462 kts | 233° |
| 2026-04-27 19:25 | 44.11985 | -15.55851 | 36300 ft | 462 kts | 233° |
| 2026-04-27 19:26 | 44.07947 | -15.62801 | 36294 ft | 461 kts | 233° |
| 2026-04-27 19:26 | 44.03904 | -15.69735 | 36297 ft | 461 kts | 233° |
| 2026-04-27 19:27 | 43.99868 | -15.76644 | 36291 ft | 460 kts | 233° |
| 2026-04-27 19:27 | 43.95831 | -15.83541 | 36291 ft | 460 kts | 233° |
| 2026-04-27 19:28 | 43.91787 | -15.90444 | 36290 ft | 460 kts | 232° |
| 2026-04-27 19:28 | 43.87737 | -15.97327 | 36290 ft | 460 kts | 232° |
| 2026-04-27 19:29 | 43.83691 | -16.04198 | 36287 ft | 460 kts | 233° |
| 2026-04-27 19:29 | 43.79671 | -16.11008 | 36292 ft | 459 kts | 233° |
| 2026-04-27 19:30 | 43.75616 | -16.17842 | 36292 ft | 459 kts | 232° |
| 2026-04-27 19:30 | 43.71557 | -16.24670 | 36294 ft | 459 kts | 233° |
| 2026-04-27 19:31 | 43.67507 | -16.31502 | 36294 ft | 459 kts | 232° |
| 2026-04-27 19:31 | 43.63441 | -16.38316 | 36282 ft | 459 kts | 232° |
| 2026-04-27 19:32 | 43.59380 | -16.45111 | 36287 ft | 459 kts | 232° |
| 2026-04-27 19:32 | 43.55315 | -16.51902 | 36289 ft | 459 kts | 232° |
| 2026-04-27 19:33 | 43.51934 | -16.57541 | 36287 ft | 459 kts | 232° |
| 2026-04-27 19:33 | 43.47857 | -16.64320 | 36288 ft | 459 kts | 232° |
| 2026-04-27 19:34 | 43.43769 | -16.71077 | 36271 ft | 459 kts | 232° |
| 2026-04-27 19:34 | 43.39684 | -16.77828 | 36286 ft | 459 kts | 232° |
| 2026-04-27 19:35 | 43.35598 | -16.84580 | 36288 ft | 459 kts | 233° |
| 2026-04-27 19:35 | 43.31533 | -16.91270 | 36292 ft | 459 kts | 233° |
| 2026-04-27 19:36 | 43.27436 | -16.97997 | 36288 ft | 458 kts | 233° |
| 2026-04-27 19:36 | 43.23345 | -17.04706 | 36284 ft | 458 kts | 232° |
| 2026-04-27 19:37 | 43.19247 | -17.11408 | 36271 ft | 458 kts | 233° |
| 2026-04-27 19:37 | 43.15146 | -17.18089 | 36277 ft | 458 kts | 233° |
| 2026-04-27 19:38 | 43.11063 | -17.24730 | 36279 ft | 458 kts | 233° |
| 2026-04-27 19:38 | 43.06954 | -17.31407 | 36285 ft | 458 kts | 233° |
| 2026-04-27 19:39 | 43.02844 | -17.38083 | 36284 ft | 458 kts | 233° |
| 2026-04-27 19:39 | 42.98725 | -17.44742 | 36268 ft | 458 kts | 233° |
| 2026-04-27 19:40 | 42.94606 | -17.51394 | 36272 ft | 459 kts | 233° |
| 2026-04-27 19:40 | 42.90476 | -17.58043 | 36276 ft | 459 kts | 233° |
| 2026-04-27 19:41 | 42.86342 | -17.64672 | 36278 ft | 459 kts | 233° |
| 2026-04-27 19:41 | 42.82206 | -17.71295 | 36277 ft | 459 kts | 233° |
| 2026-04-27 19:42 | 42.78095 | -17.77874 | 36260 ft | 459 kts | 234° |
| 2026-04-27 19:42 | 42.73958 | -17.84480 | 36269 ft | 459 kts | 234° |
| 2026-04-27 19:43 | 42.69804 | -17.91068 | 36271 ft | 459 kts | 234° |
| 2026-04-27 19:43 | 42.65654 | -17.97666 | 36273 ft | 459 kts | 234° |
| 2026-04-27 19:44 | 42.61507 | -18.04245 | 36274 ft | 459 kts | 234° |
| 2026-04-27 19:44 | 42.57345 | -18.10813 | 36257 ft | 459 kts | 234° |
| 2026-04-27 19:45 | 42.53177 | -18.17371 | 36266 ft | 459 kts | 234° |
| 2026-04-27 19:45 | 42.49014 | -18.23936 | 36267 ft | 458 kts | 234° |
| 2026-04-27 19:46 | 42.44857 | -18.30484 | 36268 ft | 458 kts | 234° |
| 2026-04-27 19:46 | 42.40684 | -18.37025 | 36268 ft | 459 kts | 234° |
| 2026-04-27 19:47 | 42.36501 | -18.43539 | 36273 ft | 459 kts | 233° |
| 2026-04-27 19:47 | 42.32349 | -18.50014 | 36262 ft | 458 kts | 234° |
| 2026-04-27 19:48 | 42.28183 | -18.56518 | 36261 ft | 457 kts | 233° |
| 2026-04-27 19:48 | 42.24006 | -18.63001 | 36266 ft | 457 kts | 233° |
| 2026-04-27 19:49 | 42.19827 | -18.69467 | 36264 ft | 457 kts | 233° |
| 2026-04-27 19:49 | 42.15651 | -18.75927 | 36265 ft | 457 kts | 233° |
| 2026-04-27 19:50 | 42.11468 | -18.82385 | 36265 ft | 457 kts | 233° |
| 2026-04-27 19:50 | 42.07285 | -18.88826 | 36264 ft | 457 kts | 233° |
| 2026-04-27 19:51 | 42.03092 | -18.95254 | 36263 ft | 457 kts | 233° |
| 2026-04-27 19:51 | 41.98910 | -19.01684 | 36266 ft | 456 kts | 234° |
| 2026-04-27 19:52 | 41.94913 | -19.08298 | 36263 ft | 455 kts | 237° |
| 2026-04-27 19:52 | 41.91052 | -19.14973 | 36256 ft | 455 kts | 237° |
| 2026-04-27 19:53 | 41.85166 | -19.24954 | 36269 ft | 454 kts | 236° |
| 2026-04-27 19:53 | 41.81198 | -19.31536 | 36255 ft | 453 kts | 236° |
| 2026-04-27 19:54 | 41.77244 | -19.38110 | 36269 ft | 453 kts | 236° |
| 2026-04-27 19:54 | 41.73298 | -19.44670 | 36260 ft | 452 kts | 236° |
| 2026-04-27 19:55 | 41.69352 | -19.51221 | 36254 ft | 451 kts | 235° |
| 2026-04-27 19:55 | 41.65411 | -19.57750 | 36256 ft | 451 kts | 235° |
| 2026-04-27 19:56 | 41.61462 | -19.64259 | 36262 ft | 450 kts | 235° |
| 2026-04-27 19:56 | 41.57525 | -19.70759 | 36253 ft | 450 kts | 235° |
| 2026-04-27 19:57 | 41.53584 | -19.77247 | 36262 ft | 450 kts | 235° |
| 2026-04-27 19:57 | 41.49632 | -19.83716 | 36255 ft | 449 kts | 234° |
| 2026-04-27 19:58 | 41.45685 | -19.90181 | 36249 ft | 449 kts | 234° |
| 2026-04-27 19:58 | 41.41765 | -19.96593 | 36252 ft | 449 kts | 234° |
| 2026-04-27 19:59 | 41.37818 | -20.03041 | 36252 ft | 449 kts | 234° |
| 2026-04-27 19:59 | 41.33866 | -20.09468 | 36253 ft | 449 kts | 234° |
| 2026-04-27 20:00 | 41.29907 | -20.15881 | 36244 ft | 448 kts | 234° |
| 2026-04-27 20:00 | 41.25954 | -20.22284 | 36257 ft | 448 kts | 234° |
| 2026-04-27 20:01 | 41.22008 | -20.28677 | 36259 ft | 447 kts | 234° |
| 2026-04-27 20:01 | 41.18062 | -20.35055 | 36254 ft | 447 kts | 234° |
| 2026-04-27 20:02 | 41.14102 | -20.41421 | 36253 ft | 447 kts | 234° |
| 2026-04-27 20:02 | 41.10137 | -20.47784 | 36244 ft | 447 kts | 233° |
| 2026-04-27 20:03 | 41.06178 | -20.54125 | 36258 ft | 445 kts | 233° |
| 2026-04-27 20:03 | 41.02225 | -20.60447 | 36259 ft | 445 kts | 233° |
| 2026-04-27 20:04 | 40.98302 | -20.66710 | 36259 ft | 444 kts | 233° |
| 2026-04-27 20:04 | 40.94996 | -20.71987 | 36258 ft | 444 kts | 233° |
| 2026-04-27 20:05 | 40.90406 | -20.79295 | 36255 ft | 444 kts | 233° |
| 2026-04-27 20:05 | 40.86457 | -20.85553 | 36252 ft | 443 kts | 233° |
| 2026-04-27 20:06 | 40.82512 | -20.91806 | 36258 ft | 443 kts | 233° |
| 2026-04-27 20:06 | 40.78560 | -20.98049 | 36259 ft | 443 kts | 233° |
| 2026-04-27 20:07 | 40.74615 | -21.04289 | 36257 ft | 442 kts | 233° |
| 2026-04-27 20:07 | 40.70664 | -21.10507 | 36256 ft | 442 kts | 233° |
| 2026-04-27 20:08 | 40.66706 | -21.16711 | 36250 ft | 442 kts | 233° |
| 2026-04-27 20:08 | 40.62752 | -21.22908 | 36250 ft | 441 kts | 233° |
| 2026-04-27 20:09 | 40.58799 | -21.29096 | 36244 ft | 441 kts | 233° |
| 2026-04-27 20:09 | 40.54872 | -21.35224 | 36248 ft | 441 kts | 233° |
| 2026-04-27 20:10 | 40.50910 | -21.41387 | 36251 ft | 441 kts | 233° |
| 2026-04-27 20:10 | 40.46956 | -21.47545 | 36248 ft | 440 kts | 233° |
| 2026-04-27 20:11 | 40.43003 | -21.53689 | 36256 ft | 439 kts | 233° |
| 2026-04-27 20:11 | 40.39056 | -21.59797 | 36263 ft | 439 kts | 233° |
| 2026-04-27 20:12 | 40.35776 | -21.64867 | 36261 ft | 438 kts | 233° |
| 2026-04-27 20:12 | 40.31168 | -21.71988 | 36249 ft | 438 kts | 233° |
| 2026-04-27 20:13 | 40.27225 | -21.78065 | 36244 ft | 438 kts | 233° |
| 2026-04-27 20:13 | 40.23279 | -21.84127 | 36249 ft | 437 kts | 233° |
| 2026-04-27 20:14 | 40.19333 | -21.90174 | 36257 ft | 435 kts | 233° |
| 2026-04-27 20:14 | 40.15402 | -21.96185 | 36250 ft | 434 kts | 233° |
| 2026-04-27 20:15 | 40.11471 | -22.02182 | 36247 ft | 434 kts | 233° |
| 2026-04-27 20:15 | 40.07577 | -22.08130 | 36245 ft | 434 kts | 233° |
| 2026-04-27 20:16 | 40.03649 | -22.14111 | 36245 ft | 433 kts | 233° |
| 2026-04-27 20:16 | 39.99723 | -22.20081 | 36238 ft | 433 kts | 233° |
| 2026-04-27 20:17 | 39.95793 | -22.26046 | 36241 ft | 433 kts | 233° |
| 2026-04-27 20:17 | 39.92525 | -22.30988 | 36240 ft | 433 kts | 233° |
| 2026-04-27 20:18 | 39.87909 | -22.37932 | 36230 ft | 433 kts | 233° |
| 2026-04-27 20:18 | 39.83969 | -22.43869 | 36243 ft | 433 kts | 233° |
| 2026-04-27 20:19 | 39.80695 | -22.48807 | 36242 ft | 433 kts | 233° |
| 2026-04-27 20:19 | 39.76755 | -22.54726 | 36245 ft | 433 kts | 233° |
| 2026-04-27 20:20 | 39.72812 | -22.60631 | 36245 ft | 432 kts | 233° |
| 2026-04-27 20:20 | 39.68872 | -22.66542 | 36239 ft | 432 kts | 233° |
| 2026-04-27 20:21 | 39.64933 | -22.72436 | 36236 ft | 432 kts | 233° |
| 2026-04-27 20:21 | 39.60985 | -22.78313 | 36234 ft | 432 kts | 233° |
| 2026-04-27 20:22 | 39.57029 | -22.84183 | 36239 ft | 432 kts | 233° |
| 2026-04-27 20:22 | 39.53086 | -22.90043 | 36240 ft | 431 kts | 233° |
| 2026-04-27 20:23 | 39.49143 | -22.95897 | 36240 ft | 431 kts | 233° |
| 2026-04-27 20:23 | 39.45226 | -23.01700 | 36240 ft | 431 kts | 233° |
| 2026-04-27 20:24 | 39.41273 | -23.07529 | 36232 ft | 430 kts | 233° |
| 2026-04-27 20:24 | 39.37320 | -23.13352 | 36226 ft | 430 kts | 233° |
| 2026-04-27 20:25 | 39.33367 | -23.19160 | 36230 ft | 430 kts | 233° |
| 2026-04-27 20:25 | 39.29415 | -23.24966 | 36228 ft | 430 kts | 233° |
| 2026-04-27 20:26 | 39.25467 | -23.30760 | 36230 ft | 430 kts | 233° |
| 2026-04-27 20:26 | 39.21511 | -23.36544 | 36230 ft | 430 kts | 232° |
| 2026-04-27 20:27 | 39.17554 | -23.42324 | 36228 ft | 430 kts | 232° |
| 2026-04-27 20:27 | 39.13592 | -23.48110 | 36229 ft | 430 kts | 232° |
| 2026-04-27 20:28 | 39.09630 | -23.53867 | 36219 ft | 430 kts | 233° |
| 2026-04-27 20:28 | 39.06336 | -23.58645 | 36218 ft | 429 kts | 233° |
| 2026-04-27 20:29 | 39.01724 | -23.65329 | 36221 ft | 430 kts | 233° |
| 2026-04-27 20:29 | 38.98092 | -23.71362 | 36222 ft | 425 kts | 239° |
| 2026-04-27 20:30 | 38.94732 | -23.77625 | 36218 ft | 425 kts | 239° |
| 2026-04-27 20:30 | 38.91362 | -23.83871 | 36016 ft | 425 kts | 239° |
| 2026-04-27 20:31 | 38.89681 | -23.86985 | 35763 ft | 424 kts | 239° |
| 2026-04-27 20:31 | 38.87997 | -23.90095 | 35489 ft | 422 kts | 239° |
| 2026-04-27 20:31 | 38.86327 | -23.93172 | 35064 ft | 418 kts | 239° |
| 2026-04-27 20:31 | 38.84674 | -23.96220 | 34620 ft | 415 kts | 239° |
| 2026-04-27 20:32 | 38.83030 | -23.99250 | 34152 ft | 412 kts | 239° |
| 2026-04-27 20:32 | 38.81401 | -24.02252 | 33661 ft | 408 kts | 239° |
| 2026-04-27 20:32 | 38.79789 | -24.05217 | 33213 ft | 402 kts | 239° |
| 2026-04-27 20:32 | 38.78199 | -24.08139 | 32774 ft | 397 kts | 238° |
| 2026-04-27 20:33 | 38.76625 | -24.11030 | 32334 ft | 393 kts | 238° |
| 2026-04-27 20:33 | 38.75067 | -24.13887 | 31897 ft | 389 kts | 238° |
| 2026-04-27 20:33 | 38.73545 | -24.16678 | 31471 ft | 385 kts | 238° |
| 2026-04-27 20:33 | 38.72015 | -24.19478 | 31052 ft | 381 kts | 238° |
| 2026-04-27 20:34 | 38.70502 | -24.22243 | 30623 ft | 377 kts | 238° |
| 2026-04-27 20:34 | 38.69008 | -24.24983 | 30203 ft | 374 kts | 238° |
| 2026-04-27 20:34 | 38.67527 | -24.27696 | 29756 ft | 370 kts | 238° |
| 2026-04-27 20:34 | 38.66061 | -24.30379 | 29373 ft | 365 kts | 238° |
| 2026-04-27 20:35 | 38.64617 | -24.33015 | 28979 ft | 360 kts | 238° |
| 2026-04-27 20:35 | 38.63188 | -24.35617 | 28593 ft | 355 kts | 238° |
| 2026-04-27 20:35 | 38.61772 | -24.38198 | 28223 ft | 354 kts | 238° |
| 2026-04-27 20:35 | 38.60365 | -24.40768 | 27861 ft | 351 kts | 238° |
| 2026-04-27 20:36 | 38.58965 | -24.43321 | 27494 ft | 349 kts | 238° |
| 2026-04-27 20:36 | 38.57574 | -24.45857 | 27151 ft | 348 kts | 238° |
| 2026-04-27 20:36 | 38.56188 | -24.48382 | 26792 ft | 346 kts | 237° |
| 2026-04-27 20:36 | 38.54806 | -24.50896 | 26434 ft | 345 kts | 237° |
| 2026-04-27 20:37 | 38.53427 | -24.53398 | 26077 ft | 344 kts | 237° |
| 2026-04-27 20:37 | 38.52051 | -24.55887 | 25724 ft | 343 kts | 237° |
| 2026-04-27 20:37 | 38.50678 | -24.58369 | 25362 ft | 341 kts | 237° |
| 2026-04-27 20:37 | 38.49309 | -24.60840 | 24993 ft | 340 kts | 237° |
| 2026-04-27 20:38 | 38.47945 | -24.63299 | 24626 ft | 339 kts | 237° |
| 2026-04-27 20:38 | 38.46589 | -24.65748 | 24240 ft | 337 kts | 237° |
| 2026-04-27 20:38 | 38.45242 | -24.68181 | 23860 ft | 335 kts | 236° |
| 2026-04-27 20:38 | 38.43898 | -24.70609 | 23437 ft | 334 kts | 236° |
| 2026-04-27 20:39 | 38.42563 | -24.73015 | 23048 ft | 330 kts | 237° |
| 2026-04-27 20:39 | 38.41258 | -24.75365 | 22675 ft | 327 kts | 236° |
| 2026-04-27 20:39 | 38.39946 | -24.77727 | 22287 ft | 325 kts | 236° |
| 2026-04-27 20:39 | 38.38642 | -24.80075 | 21910 ft | 323 kts | 236° |
| 2026-04-27 20:40 | 38.37347 | -24.82405 | 21534 ft | 321 kts | 236° |
| 2026-04-27 20:40 | 38.36064 | -24.84713 | 21161 ft | 318 kts | 235° |
| 2026-04-27 20:40 | 38.34787 | -24.87006 | 20777 ft | 316 kts | 235° |
| 2026-04-27 20:40 | 38.33517 | -24.89284 | 20403 ft | 314 kts | 235° |
| 2026-04-27 20:41 | 38.32254 | -24.91548 | 20029 ft | 312 kts | 235° |
| 2026-04-27 20:41 | 38.31000 | -24.93793 | 19665 ft | 310 kts | 235° |
| 2026-04-27 20:41 | 38.29753 | -24.96024 | 19292 ft | 309 kts | 234° |
| 2026-04-27 20:41 | 38.28509 | -24.98247 | 18923 ft | 307 kts | 234° |
| 2026-04-27 20:42 | 38.27271 | -25.00457 | 18558 ft | 305 kts | 234° |
| 2026-04-27 20:42 | 38.26039 | -25.02653 | 18166 ft | 304 kts | 234° |
| 2026-04-27 20:42 | 38.24813 | -25.04841 | 17791 ft | 304 kts | 234° |
| 2026-04-27 20:42 | 38.23587 | -25.07030 | 17424 ft | 303 kts | 234° |
| 2026-04-27 20:43 | 38.22368 | -25.09206 | 17057 ft | 301 kts | 234° |
| 2026-04-27 20:43 | 38.21158 | -25.11364 | 16702 ft | 299 kts | 234° |
| 2026-04-27 20:43 | 38.19955 | -25.13507 | 16343 ft | 297 kts | 234° |
| 2026-04-27 20:43 | 38.18759 | -25.15637 | 15989 ft | 293 kts | 234° |
| 2026-04-27 20:44 | 38.17577 | -25.17740 | 15633 ft | 293 kts | 234° |
| 2026-04-27 20:44 | 38.16395 | -25.19845 | 15277 ft | 292 kts | 234° |
| 2026-04-27 20:44 | 38.15216 | -25.21941 | 14933 ft | 291 kts | 234° |
| 2026-04-27 20:44 | 38.14042 | -25.24025 | 14585 ft | 289 kts | 234° |
| 2026-04-27 20:45 | 38.12890 | -25.26070 | 14243 ft | 288 kts | 233° |
| 2026-04-27 20:45 | 38.11723 | -25.28138 | 13894 ft | 288 kts | 233° |
| 2026-04-27 20:45 | 38.10547 | -25.30212 | 13226 ft | 294 kts | 233° |
| 2026-04-27 20:45 | 38.09336 | -25.32347 | 12581 ft | 300 kts | 233° |
| 2026-04-27 20:46 | 38.08118 | -25.34499 | 12108 ft | 300 kts | 233° |
| 2026-04-27 20:46 | 38.06908 | -25.36641 | 11655 ft | 298 kts | 233° |
| 2026-04-27 20:46 | 38.05703 | -25.38774 | 11245 ft | 296 kts | 233° |
| 2026-04-27 20:46 | 38.04508 | -25.40887 | 10833 ft | 294 kts | 233° |
| 2026-04-27 20:47 | 38.03323 | -25.42981 | 10450 ft | 290 kts | 233° |
| 2026-04-27 20:47 | 38.02163 | -25.45024 | 10240 ft | 281 kts | 233° |
| 2026-04-27 20:47 | 38.01021 | -25.47027 | 9837 ft | 279 kts | 232° |
| 2026-04-27 20:47 | 37.99885 | -25.49021 | 9398 ft | 279 kts | 233° |
| 2026-04-27 20:48 | 37.98756 | -25.51004 | 9038 ft | 275 kts | 232° |
| 2026-04-27 20:48 | 37.98015 | -25.52304 | 8774 ft | 274 kts | 232° |
| 2026-04-27 20:48 | 37.96547 | -25.54889 | 8331 ft | 267 kts | 233° |
| 2026-04-27 20:48 | 37.95459 | -25.56804 | 7915 ft | 267 kts | 232° |
| 2026-04-27 20:49 | 37.94390 | -25.58686 | 7489 ft | 267 kts | 233° |
| 2026-04-27 20:49 | 37.93500 | -25.60771 | 7166 ft | 265 kts | 248° |
| 2026-04-27 20:49 | 37.93064 | -25.63044 | 6795 ft | 267 kts | 260° |
| 2026-04-27 20:49 | 37.93003 | -25.65359 | 6467 ft | 265 kts | 265° |
| 2026-04-27 20:50 | 37.92969 | -25.67694 | 6068 ft | 264 kts | 265° |
| 2026-04-27 20:50 | 37.92929 | -25.70018 | 5648 ft | 264 kts | 264° |
| 2026-04-27 20:50 | 37.92886 | -25.72330 | 5260 ft | 262 kts | 265° |
| 2026-04-27 20:50 | 37.92846 | -25.74601 | 5043 ft | 249 kts | 264° |
| 2026-04-27 20:51 | 37.92813 | -25.76741 | 4543 ft | 239 kts | 264° |
| 2026-04-27 20:51 | 37.92774 | -25.78833 | 3920 ft | 235 kts | 263° |
| 2026-04-27 20:51 | 37.92641 | -25.80870 | 3409 ft | 230 kts | 254° |
| 2026-04-27 20:51 | 37.92174 | -25.82790 | 2954 ft | 225 kts | 243° |
| 2026-04-27 20:52 | 37.91432 | -25.84504 | 2560 ft | 219 kts | 231° |
| 2026-04-27 20:52 | 37.90463 | -25.85964 | 2232 ft | 215 kts | 221° |
| 2026-04-27 20:52 | 37.89287 | -25.87147 | 2210 ft | 217 kts | 211° |
| 2026-04-27 20:52 | 37.87947 | -25.88022 | 2211 ft | 217 kts | 200° |
| 2026-04-27 20:53 | 37.86500 | -25.88535 | 2211 ft | 217 kts | 190° |
| 2026-04-27 20:53 | 37.84999 | -25.88664 | 2210 ft | 218 kts | 180° |
| 2026-04-27 20:53 | 37.83546 | -25.88425 | 2206 ft | 202 kts | 170° |
| 2026-04-27 20:53 | 37.82278 | -25.87896 | 2210 ft | 181 kts | 161° |
| 2026-04-27 20:54 | 37.80398 | -25.86416 | 2211 ft | 144 kts | 146° |
| 2026-04-27 20:54 | 37.79694 | -25.85568 | 2206 ft | 142 kts | 139° |
| 2026-04-27 20:54 | 37.79082 | -25.84609 | 2208 ft | 139 kts | 134° |
| 2026-04-27 20:55 | 37.78581 | -25.83573 | 2208 ft | 139 kts | 124° |
| 2026-04-27 20:55 | 37.78177 | -25.82445 | 2207 ft | 143 kts | 120° |
| 2026-04-27 20:55 | 37.77806 | -25.81271 | 2010 ft | 143 kts | 120° |
| 2026-04-27 20:55 | 37.77440 | -25.80107 | 1803 ft | 142 kts | 121° |
| 2026-04-27 20:56 | 37.77078 | -25.78957 | 1612 ft | 139 kts | 117° |
| 2026-04-27 20:56 | 37.76727 | -25.77837 | 1422 ft | 135 kts | 121° |
| 2026-04-27 20:56 | 37.76379 | -25.76734 | 1251 ft | 136 kts | 118° |
| 2026-04-27 20:56 | 37.76025 | -25.75609 | 1061 ft | 139 kts | 114° |
| 2026-04-27 20:57 | 37.75674 | -25.74490 | 867 ft | 134 kts | 114° |
| 2026-04-27 20:57 | 37.75337 | -25.73390 | 697 ft | 133 kts | 113° |
| 2026-04-27 20:57 | 37.74998 | -25.72268 | 509 ft | 137 kts | 113° |
| 2026-04-27 20:57 | 37.74657 | -25.71180 | 301 ft | 134 kts | 113° |
| 2026-04-27 20:58 | 37.74327 | -25.70205 | 237 ft | 89 kts | 112° |
| 2026-04-27 20:58 | 37.74224 | -25.69851 | 220 ft | 12 kts | 99° |
| 2026-04-27 20:58 | 37.74193 | -25.69716 | 218 ft | 22 kts | 111° |
| 2026-04-27 20:58 | 37.74131 | -25.69536 | 216 ft | 19 kts | 115° |
| 2026-04-27 20:59 | 37.74083 | -25.69389 | 209 ft | 13 kts | 107° |
| 2026-04-27 20:59 | 37.74060 | -25.69261 | 205 ft | 13 kts | 97° |
| 2026-04-27 20:59 | 37.74025 | -25.69211 | 203 ft | 7 kts | 251° |
| 2026-04-27 20:59 | 37.74044 | -25.69330 | 209 ft | 18 kts | 295° |
| 2026-04-27 21:00 | 37.74093 | -25.69457 | 206 ft | 18 kts | 294° |
| 2026-04-27 21:00 | 37.74143 | -25.69598 | 213 ft | 17 kts | 294° |
| 2026-04-27 21:00 | 37.74198 | -25.69735 | 222 ft | 17 kts | 310° |
| 2026-04-27 21:00 | 37.74284 | -25.69722 | 218 ft | 14 kts | 28° |
| 2026-04-27 21:01 | 37.74320 | -25.69654 | 219 ft | 4 kts | 30° |
| 2026-04-27 21:01 | 37.74341 | -25.69672 | 221 ft | 3 kts | 320° |
| 2026-04-27 21:01 | 37.74341 | -25.69673 | 221 ft | 0 kts | 320° |